sensor_id;sensor_type;location;lat;lon;timestamp;pressure;altitude;pressure_sealevel;temperature;humidity
2178;BME280;1095;50.992;6.798;2023-06-19T00:01:43;100144.63;;;21.35;81.72
2178;BME280;1095;50.992;6.798;2023-06-19T00:04:10;100143.72;;;21.30;81.29
2178;BME280;1095;50.992;6.798;2023-06-19T00:06:37;100139.78;;;21.32;80.23
2178;BME280;1095;50.992;6.798;2023-06-19T00:09:04;100133.41;;;21.33;80.16
2178;BME280;1095;50.992;6.798;2023-06-19T00:11:32;100138.44;;;21.46;79.17
2178;BME280;1095;50.992;6.798;2023-06-19T00:13:58;100136.91;;;21.50;78.58
2178;BME280;1095;50.992;6.798;2023-06-19T00:16:27;100138.53;;;21.51;78.36
2178;BME280;1095;50.992;6.798;2023-06-19T00:18:54;100124.66;;;21.49;78.34
2178;BME280;1095;50.992;6.798;2023-06-19T00:21:21;100141.00;;;21.41;78.54
2178;BME280;1095;50.992;6.798;2023-06-19T00:23:49;100139.28;;;21.35;79.23
2178;BME280;1095;50.992;6.798;2023-06-19T00:26:16;100134.22;;;21.34;78.97
2178;BME280;1095;50.992;6.798;2023-06-19T00:28:42;100145.66;;;21.34;78.96
2178;BME280;1095;50.992;6.798;2023-06-19T00:31:10;100147.75;;;21.32;78.86
2178;BME280;1095;50.992;6.798;2023-06-19T00:33:40;100147.28;;;21.35;78.78
2178;BME280;1095;50.992;6.798;2023-06-19T00:36:09;100145.81;;;21.28;78.96
2178;BME280;1095;50.992;6.798;2023-06-19T00:38:36;100149.59;;;21.32;79.15
2178;BME280;1095;50.992;6.798;2023-06-19T00:41:03;100152.75;;;21.29;79.39
2178;BME280;1095;50.992;6.798;2023-06-19T00:43:30;100162.56;;;21.28;79.43
2178;BME280;1095;50.992;6.798;2023-06-19T00:45:57;100175.34;;;21.26;79.41
2178;BME280;1095;50.992;6.798;2023-06-19T00:48:24;100177.44;;;21.24;79.53
2178;BME280;1095;50.992;6.798;2023-06-19T00:50:53;100171.53;;;21.22;79.94
2178;BME280;1095;50.992;6.798;2023-06-19T00:53:20;100169.22;;;21.26;79.49
2178;BME280;1095;50.992;6.798;2023-06-19T00:55:47;100176.78;;;21.34;79.39
2178;BME280;1095;50.992;6.798;2023-06-19T00:58:16;100168.75;;;21.45;79.05
2178;BME280;1095;50.992;6.798;2023-06-19T01:00:43;100175.72;;;21.46;78.73
2178;BME280;1095;50.992;6.798;2023-06-19T01:03:10;100175.13;;;21.44;79.16
2178;BME280;1095;50.992;6.798;2023-06-19T01:05:38;100189.88;;;21.35;79.52
2178;BME280;1095;50.992;6.798;2023-06-19T01:08:10;100181.78;;;21.30;79.65
2178;BME280;1095;50.992;6.798;2023-06-19T01:10:40;100185.03;;;21.20;80.30
2178;BME280;1095;50.992;6.798;2023-06-19T01:13:11;100191.22;;;21.21;80.70
2178;BME280;1095;50.992;6.798;2023-06-19T01:15:40;100179.28;;;21.12;81.18
2178;BME280;1095;50.992;6.798;2023-06-19T01:18:08;100192.34;;;21.13;81.60
2178;BME280;1095;50.992;6.798;2023-06-19T01:20:37;100188.19;;;21.06;82.05
2178;BME280;1095;50.992;6.798;2023-06-19T01:23:10;100180.91;;;21.13;82.38
2178;BME280;1095;50.992;6.798;2023-06-19T01:25:37;100185.44;;;21.01;82.76
2178;BME280;1095;50.992;6.798;2023-06-19T01:28:06;100191.47;;;20.96;83.14
2178;BME280;1095;50.992;6.798;2023-06-19T01:30:35;100193.19;;;20.91;83.82
2178;BME280;1095;50.992;6.798;2023-06-19T01:33:06;100192.16;;;20.80;84.54
2178;BME280;1095;50.992;6.798;2023-06-19T01:35:35;100182.34;;;20.80;84.91
2178;BME280;1095;50.992;6.798;2023-06-19T01:38:09;100176.78;;;20.82;85.48
2178;BME280;1095;50.992;6.798;2023-06-19T01:40:37;100188.00;;;20.96;86.52
2178;BME280;1095;50.992;6.798;2023-06-19T01:43:05;100184.97;;;21.04;86.58
2178;BME280;1095;50.992;6.798;2023-06-19T01:45:33;100175.84;;;21.00;86.19
2178;BME280;1095;50.992;6.798;2023-06-19T01:48:00;100192.25;;;20.97;86.19
2178;BME280;1095;50.992;6.798;2023-06-19T01:50:26;100190.19;;;20.99;85.93
2178;BME280;1095;50.992;6.798;2023-06-19T01:52:53;100199.06;;;21.04;86.04
2178;BME280;1095;50.992;6.798;2023-06-19T01:55:21;100201.16;;;21.02;86.07
2178;BME280;1095;50.992;6.798;2023-06-19T01:57:48;100201.50;;;21.06;85.89
2178;BME280;1095;50.992;6.798;2023-06-19T02:00:15;100207.88;;;21.05;86.08
2178;BME280;1095;50.992;6.798;2023-06-19T02:02:42;100208.09;;;21.03;86.40
2178;BME280;1095;50.992;6.798;2023-06-19T02:05:09;100221.16;;;21.05;86.04
2178;BME280;1095;50.992;6.798;2023-06-19T02:07:36;100216.31;;;21.02;86.26
2178;BME280;1095;50.992;6.798;2023-06-19T02:10:03;100217.59;;;20.99;86.25
2178;BME280;1095;50.992;6.798;2023-06-19T02:12:32;100218.75;;;21.03;86.24
2178;BME280;1095;50.992;6.798;2023-06-19T02:14:58;100225.22;;;21.07;85.83
2178;BME280;1095;50.992;6.798;2023-06-19T02:17:25;100226.84;;;21.08;85.89
2178;BME280;1095;50.992;6.798;2023-06-19T02:19:51;100235.38;;;21.10;85.69
2178;BME280;1095;50.992;6.798;2023-06-19T02:22:18;100235.59;;;21.20;85.22
2178;BME280;1095;50.992;6.798;2023-06-19T02:24:45;100237.59;;;21.25;84.73
2178;BME280;1095;50.992;6.798;2023-06-19T02:27:11;100248.06;;;21.32;84.61
2178;BME280;1095;50.992;6.798;2023-06-19T02:29:39;100242.03;;;21.36;84.15
2178;BME280;1095;50.992;6.798;2023-06-19T02:32:06;100245.28;;;21.38;83.30
2178;BME280;1095;50.992;6.798;2023-06-19T02:34:33;100249.91;;;21.43;82.95
2178;BME280;1095;50.992;6.798;2023-06-19T02:37:00;100242.81;;;21.48;82.66
2178;BME280;1095;50.992;6.798;2023-06-19T02:39:26;100249.44;;;21.46;81.66
2178;BME280;1095;50.992;6.798;2023-06-19T02:41:53;100238.31;;;21.49;80.73
2178;BME280;1095;50.992;6.798;2023-06-19T02:44:20;100236.34;;;21.44;80.23
2178;BME280;1095;50.992;6.798;2023-06-19T02:46:48;100235.69;;;21.37;79.87
2178;BME280;1095;50.992;6.798;2023-06-19T02:49:14;100245.06;;;21.28;78.82
2178;BME280;1095;50.992;6.798;2023-06-19T02:51:41;100246.63;;;21.24;78.77
2178;BME280;1095;50.992;6.798;2023-06-19T02:54:07;100258.16;;;21.18;78.87
2178;BME280;1095;50.992;6.798;2023-06-19T02:56:34;100262.00;;;21.10;79.20
2178;BME280;1095;50.992;6.798;2023-06-19T02:59:01;100269.41;;;21.08;79.11
2178;BME280;1095;50.992;6.798;2023-06-19T03:01:27;100264.53;;;21.05;78.63
2178;BME280;1095;50.992;6.798;2023-06-19T03:03:55;100267.09;;;21.00;79.02
2178;BME280;1095;50.992;6.798;2023-06-19T03:06:22;100281.88;;;20.96;78.99
2178;BME280;1095;50.992;6.798;2023-06-19T03:08:49;100273.34;;;20.94;78.90
2178;BME280;1095;50.992;6.798;2023-06-19T03:11:15;100277.50;;;20.90;78.63
2178;BME280;1095;50.992;6.798;2023-06-19T03:13:47;100279.91;;;20.92;78.88
2178;BME280;1095;50.992;6.798;2023-06-19T03:16:14;100289.19;;;20.89;78.26
2178;BME280;1095;50.992;6.798;2023-06-19T03:18:40;100287.44;;;20.83;78.31
2178;BME280;1095;50.992;6.798;2023-06-19T03:21:09;100285.00;;;20.81;77.70
2178;BME280;1095;50.992;6.798;2023-06-19T03:23:35;100294.25;;;20.91;76.53
2178;BME280;1095;50.992;6.798;2023-06-19T03:26:02;100296.81;;;20.85;76.51
2178;BME280;1095;50.992;6.798;2023-06-19T03:28:29;100311.94;;;20.85;76.26
2178;BME280;1095;50.992;6.798;2023-06-19T03:30:56;100318.69;;;20.76;76.61
2178;BME280;1095;50.992;6.798;2023-06-19T03:33:22;100330.56;;;20.73;77.11
2178;BME280;1095;50.992;6.798;2023-06-19T03:35:49;100327.31;;;20.60;77.77
2178;BME280;1095;50.992;6.798;2023-06-19T03:38:17;100333.78;;;20.52;78.34
2178;BME280;1095;50.992;6.798;2023-06-19T03:40:44;100345.22;;;20.52;78.67
2178;BME280;1095;50.992;6.798;2023-06-19T03:43:11;100339.63;;;20.42;79.45
2178;BME280;1095;50.992;6.798;2023-06-19T03:45:37;100349.75;;;20.34;80.29
2178;BME280;1095;50.992;6.798;2023-06-19T03:48:04;100346.53;;;20.32;81.11
2178;BME280;1095;50.992;6.798;2023-06-19T03:50:31;100353.34;;;20.28;81.45
2178;BME280;1095;50.992;6.798;2023-06-19T03:52:57;100358.19;;;20.31;81.88
2178;BME280;1095;50.992;6.798;2023-06-19T03:55:25;100362.00;;;20.35;82.12
2178;BME280;1095;50.992;6.798;2023-06-19T03:57:52;100360.72;;;20.37;82.24
2178;BME280;1095;50.992;6.798;2023-06-19T04:00:19;100378.91;;;20.40;82.33
2178;BME280;1095;50.992;6.798;2023-06-19T04:02:45;100380.09;;;20.44;82.41
2178;BME280;1095;50.992;6.798;2023-06-19T04:05:13;100384.84;;;20.54;82.45
2178;BME280;1095;50.992;6.798;2023-06-19T04:07:40;100391.25;;;20.65;82.45
2178;BME280;1095;50.992;6.798;2023-06-19T04:10:08;100384.09;;;20.88;82.00
2178;BME280;1095;50.992;6.798;2023-06-19T04:12:38;100391.63;;;20.92;81.59
2178;BME280;1095;50.992;6.798;2023-06-19T04:15:06;100398.47;;;21.11;80.98
2178;BME280;1095;50.992;6.798;2023-06-19T04:17:33;100395.25;;;21.09;81.35
2178;BME280;1095;50.992;6.798;2023-06-19T04:19:59;100404.38;;;21.13;80.83
2178;BME280;1095;50.992;6.798;2023-06-19T04:22:26;100411.88;;;21.04;81.46
2178;BME280;1095;50.992;6.798;2023-06-19T04:24:55;100411.16;;;20.85;82.01
2178;BME280;1095;50.992;6.798;2023-06-19T04:27:22;100419.44;;;20.66;82.79
2178;BME280;1095;50.992;6.798;2023-06-19T04:29:50;100412.88;;;20.68;83.28
2178;BME280;1095;50.992;6.798;2023-06-19T04:32:21;100429.16;;;20.60;83.45
2178;BME280;1095;50.992;6.798;2023-06-19T04:34:47;100437.84;;;20.67;83.59
2178;BME280;1095;50.992;6.798;2023-06-19T04:37:15;100426.63;;;20.65;83.65
2178;BME280;1095;50.992;6.798;2023-06-19T04:39:44;100434.50;;;20.72;83.38
2178;BME280;1095;50.992;6.798;2023-06-19T04:42:13;100427.09;;;20.74;83.55
2178;BME280;1095;50.992;6.798;2023-06-19T04:44:44;100423.81;;;20.60;83.63
2178;BME280;1095;50.992;6.798;2023-06-19T04:47:12;100435.44;;;20.77;83.70
2178;BME280;1095;50.992;6.798;2023-06-19T04:49:39;100428.31;;;21.01;83.07
2178;BME280;1095;50.992;6.798;2023-06-19T04:52:06;100434.34;;;21.20;82.19
2178;BME280;1095;50.992;6.798;2023-06-19T04:54:33;100423.72;;;21.20;81.74
2178;BME280;1095;50.992;6.798;2023-06-19T04:56:59;100433.56;;;21.31;81.95
2178;BME280;1095;50.992;6.798;2023-06-19T04:59:26;100430.91;;;21.43;81.38
2178;BME280;1095;50.992;6.798;2023-06-19T05:01:55;100429.00;;;21.78;80.69
2178;BME280;1095;50.992;6.798;2023-06-19T05:04:24;100432.03;;;22.22;79.09
2178;BME280;1095;50.992;6.798;2023-06-19T05:06:51;100436.38;;;22.68;77.71
2178;BME280;1095;50.992;6.798;2023-06-19T05:09:21;100427.38;;;22.58;77.15
2178;BME280;1095;50.992;6.798;2023-06-19T05:11:47;100426.81;;;22.72;76.76
2178;BME280;1095;50.992;6.798;2023-06-19T05:14:14;100425.28;;;22.76;76.53
2178;BME280;1095;50.992;6.798;2023-06-19T05:16:41;100440.94;;;22.28;77.13
2178;BME280;1095;50.992;6.798;2023-06-19T05:19:07;100442.69;;;22.22;77.87
2178;BME280;1095;50.992;6.798;2023-06-19T05:21:35;100449.84;;;21.81;79.06
2178;BME280;1095;50.992;6.798;2023-06-19T05:24:02;100436.22;;;21.66;79.49
2178;BME280;1095;50.992;6.798;2023-06-19T05:26:29;100438.88;;;21.66;79.48
2178;BME280;1095;50.992;6.798;2023-06-19T05:28:55;100438.47;;;21.98;78.48
2178;BME280;1095;50.992;6.798;2023-06-19T05:31:22;100445.28;;;22.45;77.35
2178;BME280;1095;50.992;6.798;2023-06-19T05:33:49;100443.22;;;22.93;75.50
2178;BME280;1095;50.992;6.798;2023-06-19T05:36:15;100436.66;;;23.34;73.82
2178;BME280;1095;50.992;6.798;2023-06-19T05:38:43;100433.00;;;23.57;71.68
2178;BME280;1095;50.992;6.798;2023-06-19T05:41:10;100436.44;;;23.74;71.17
2178;BME280;1095;50.992;6.798;2023-06-19T05:43:37;100437.31;;;24.01;70.19
2178;BME280;1095;50.992;6.798;2023-06-19T05:46:04;100435.13;;;24.42;68.92
2178;BME280;1095;50.992;6.798;2023-06-19T05:48:31;100448.50;;;24.96;67.98
2178;BME280;1095;50.992;6.798;2023-06-19T05:50:58;100435.78;;;25.55;65.44
2178;BME280;1095;50.992;6.798;2023-06-19T05:53:25;100452.53;;;26.50;63.14
2178;BME280;1095;50.992;6.798;2023-06-19T05:55:53;100432.19;;;27.00;61.62
2178;BME280;1095;50.992;6.798;2023-06-19T05:58:19;100434.25;;;27.54;59.84
2178;BME280;1095;50.992;6.798;2023-06-19T06:00:46;100430.44;;;27.85;57.40
2178;BME280;1095;50.992;6.798;2023-06-19T06:03:13;100440.47;;;27.44;57.52
2178;BME280;1095;50.992;6.798;2023-06-19T06:05:41;100439.19;;;26.96;59.44
2178;BME280;1095;50.992;6.798;2023-06-19T06:08:08;100442.53;;;26.25;60.67
2178;BME280;1095;50.992;6.798;2023-06-19T06:10:37;100440.28;;;25.44;62.76
2178;BME280;1095;50.992;6.798;2023-06-19T06:13:05;100445.88;;;25.38;64.12
2178;BME280;1095;50.992;6.798;2023-06-19T06:15:32;100447.09;;;25.25;64.29
2178;BME280;1095;50.992;6.798;2023-06-19T06:17:59;100440.09;;;24.87;64.89
2178;BME280;1095;50.992;6.798;2023-06-19T06:20:26;100440.50;;;24.74;65.45
2178;BME280;1095;50.992;6.798;2023-06-19T06:22:53;100438.00;;;25.26;64.37
2178;BME280;1095;50.992;6.798;2023-06-19T06:25:19;100438.34;;;25.77;63.26
2178;BME280;1095;50.992;6.798;2023-06-19T06:27:46;100439.19;;;27.16;59.79
2178;BME280;1095;50.992;6.798;2023-06-19T06:30:14;100437.88;;;28.03;57.53
2178;BME280;1095;50.992;6.798;2023-06-19T06:32:41;100452.81;;;28.74;56.53
2178;BME280;1095;50.992;6.798;2023-06-19T06:35:08;100450.91;;;28.80;55.53
2178;BME280;1095;50.992;6.798;2023-06-19T06:37:35;100457.69;;;28.33;56.24
2178;BME280;1095;50.992;6.798;2023-06-19T06:40:01;100447.44;;;27.60;57.65
2178;BME280;1095;50.992;6.798;2023-06-19T06:42:30;100450.38;;;27.74;57.91
2178;BME280;1095;50.992;6.798;2023-06-19T06:44:57;100449.91;;;26.91;59.37
2178;BME280;1095;50.992;6.798;2023-06-19T06:47:25;100473.28;;;25.18;63.36
2178;BME280;1095;50.992;6.798;2023-06-19T06:49:51;100469.91;;;24.96;64.53
2178;BME280;1095;50.992;6.798;2023-06-19T06:52:18;100478.63;;;24.32;65.93
2178;BME280;1095;50.992;6.798;2023-06-19T06:54:44;100473.81;;;24.34;66.35
2178;BME280;1095;50.992;6.798;2023-06-19T06:57:11;100487.97;;;24.13;66.69
2178;BME280;1095;50.992;6.798;2023-06-19T06:59:38;100490.38;;;24.31;66.51
2178;BME280;1095;50.992;6.798;2023-06-19T07:02:06;100492.84;;;24.38;66.82
2178;BME280;1095;50.992;6.798;2023-06-19T07:04:34;100483.13;;;24.54;65.87
2178;BME280;1095;50.992;6.798;2023-06-19T07:07:00;100483.50;;;25.21;65.05
2178;BME280;1095;50.992;6.798;2023-06-19T07:09:29;100483.94;;;25.45;63.46
2178;BME280;1095;50.992;6.798;2023-06-19T07:11:55;100475.97;;;25.97;62.36
2178;BME280;1095;50.992;6.798;2023-06-19T07:14:22;100487.00;;;24.95;64.57
2178;BME280;1095;50.992;6.798;2023-06-19T07:16:49;100498.66;;;25.10;65.03
2178;BME280;1095;50.992;6.798;2023-06-19T07:19:15;100494.66;;;25.13;65.18
2178;BME280;1095;50.992;6.798;2023-06-19T07:21:43;100502.34;;;24.77;66.14
2178;BME280;1095;50.992;6.798;2023-06-19T07:24:10;100492.16;;;24.74;66.15
2178;BME280;1095;50.992;6.798;2023-06-19T07:26:37;100495.38;;;24.76;66.04
2178;BME280;1095;50.992;6.798;2023-06-19T07:29:03;100496.19;;;24.50;67.57
2178;BME280;1095;50.992;6.798;2023-06-19T07:31:30;100494.03;;;24.74;67.67
2178;BME280;1095;50.992;6.798;2023-06-19T07:33:57;100492.53;;;24.56;67.51
2178;BME280;1095;50.992;6.798;2023-06-19T07:36:23;100496.84;;;24.19;68.02
2178;BME280;1095;50.992;6.798;2023-06-19T07:38:51;100499.97;;;24.10;68.78
2178;BME280;1095;50.992;6.798;2023-06-19T07:41:18;100499.09;;;23.83;69.85
2178;BME280;1095;50.992;6.798;2023-06-19T07:43:45;100499.00;;;24.38;69.09
2178;BME280;1095;50.992;6.798;2023-06-19T07:46:11;100501.44;;;24.67;68.28
2178;BME280;1095;50.992;6.798;2023-06-19T07:48:41;100501.75;;;24.43;68.05
2178;BME280;1095;50.992;6.798;2023-06-19T07:51:07;100500.81;;;24.33;67.96
2178;BME280;1095;50.992;6.798;2023-06-19T07:53:35;100502.69;;;24.15;68.43
2178;BME280;1095;50.992;6.798;2023-06-19T07:56:03;100507.13;;;24.05;68.94
2178;BME280;1095;50.992;6.798;2023-06-19T07:58:30;100505.06;;;23.90;69.59
2178;BME280;1095;50.992;6.798;2023-06-19T08:00:58;100512.09;;;23.96;69.60
2178;BME280;1095;50.992;6.798;2023-06-19T08:03:25;100511.66;;;24.04;69.57
2178;BME280;1095;50.992;6.798;2023-06-19T08:05:52;100496.13;;;24.01;69.23
2178;BME280;1095;50.992;6.798;2023-06-19T08:08:19;100500.00;;;23.72;70.11
2178;BME280;1095;50.992;6.798;2023-06-19T08:10:45;100503.41;;;24.06;69.02
2178;BME280;1095;50.992;6.798;2023-06-19T08:13:13;100509.28;;;24.46;68.60
2178;BME280;1095;50.992;6.798;2023-06-19T08:15:40;100516.47;;;24.46;68.02
2178;BME280;1095;50.992;6.798;2023-06-19T08:18:07;100507.03;;;24.65;67.26
2178;BME280;1095;50.992;6.798;2023-06-19T08:20:33;100515.34;;;25.55;65.59
2178;BME280;1095;50.992;6.798;2023-06-19T08:23:00;100507.06;;;25.98;63.99
2178;BME280;1095;50.992;6.798;2023-06-19T08:25:26;100507.16;;;26.24;62.38
2178;BME280;1095;50.992;6.798;2023-06-19T08:27:53;100499.91;;;25.67;63.35
2178;BME280;1095;50.992;6.798;2023-06-19T08:30:21;100504.69;;;26.90;61.26
2178;BME280;1095;50.992;6.798;2023-06-19T08:32:48;100499.06;;;26.91;59.69
2178;BME280;1095;50.992;6.798;2023-06-19T08:35:14;100500.38;;;27.80;58.65
2178;BME280;1095;50.992;6.798;2023-06-19T08:37:41;100506.72;;;28.09;57.53
2178;BME280;1095;50.992;6.798;2023-06-19T08:40:09;100504.94;;;27.85;57.63
2178;BME280;1095;50.992;6.798;2023-06-19T08:42:36;100513.47;;;28.02;58.30
2178;BME280;1095;50.992;6.798;2023-06-19T08:45:05;100516.44;;;29.04;55.99
2178;BME280;1095;50.992;6.798;2023-06-19T08:47:34;100525.34;;;29.33;55.55
2178;BME280;1095;50.992;6.798;2023-06-19T08:50:00;100516.47;;;28.55;56.11
2178;BME280;1095;50.992;6.798;2023-06-19T08:52:27;100523.66;;;28.69;55.10
2178;BME280;1095;50.992;6.798;2023-06-19T08:54:54;100524.56;;;28.99;55.01
2178;BME280;1095;50.992;6.798;2023-06-19T08:57:20;100534.06;;;29.25;54.63
2178;BME280;1095;50.992;6.798;2023-06-19T08:59:51;100526.63;;;29.75;54.39
2178;BME280;1095;50.992;6.798;2023-06-19T09:02:17;100526.50;;;28.93;54.83
2178;BME280;1095;50.992;6.798;2023-06-19T09:04:45;100524.81;;;29.31;54.14
2178;BME280;1095;50.992;6.798;2023-06-19T09:07:12;100522.56;;;29.49;53.68
2178;BME280;1095;50.992;6.798;2023-06-19T09:09:44;100511.44;;;29.26;53.33
2178;BME280;1095;50.992;6.798;2023-06-19T09:12:14;100508.28;;;28.31;54.88
2178;BME280;1095;50.992;6.798;2023-06-19T09:14:44;100527.53;;;27.43;56.79
2178;BME280;1095;50.992;6.798;2023-06-19T09:17:12;100524.50;;;27.90;55.21
2178;BME280;1095;50.992;6.798;2023-06-19T09:19:48;100522.75;;;28.40;54.61
2178;BME280;1095;50.992;6.798;2023-06-19T09:22:16;100522.13;;;28.58;54.69
2178;BME280;1095;50.992;6.798;2023-06-19T09:24:45;100526.50;;;28.44;55.15
2178;BME280;1095;50.992;6.798;2023-06-19T09:27:13;100525.81;;;28.72;55.22
2178;BME280;1095;50.992;6.798;2023-06-19T09:29:40;100525.59;;;28.59;54.34
2178;BME280;1095;50.992;6.798;2023-06-19T09:32:17;100529.91;;;27.90;55.36
2178;BME280;1095;50.992;6.798;2023-06-19T09:34:44;100523.97;;;27.93;55.54
2178;BME280;1095;50.992;6.798;2023-06-19T09:37:12;100528.25;;;28.69;54.50
2178;BME280;1095;50.992;6.798;2023-06-19T09:39:40;100527.94;;;28.76;54.64
2178;BME280;1095;50.992;6.798;2023-06-19T09:42:08;100527.34;;;29.23;54.37
2178;BME280;1095;50.992;6.798;2023-06-19T09:44:40;100532.06;;;29.41;53.02
2178;BME280;1095;50.992;6.798;2023-06-19T09:47:14;100518.59;;;29.07;51.76
2178;BME280;1095;50.992;6.798;2023-06-19T09:49:47;100524.78;;;29.70;51.59
2178;BME280;1095;50.992;6.798;2023-06-19T09:52:16;100523.84;;;30.28;50.46
2178;BME280;1095;50.992;6.798;2023-06-19T09:54:45;100522.84;;;29.76;51.53
2178;BME280;1095;50.992;6.798;2023-06-19T09:57:12;100520.81;;;29.87;51.32
2178;BME280;1095;50.992;6.798;2023-06-19T09:59:39;100521.47;;;30.02;51.26
2178;BME280;1095;50.992;6.798;2023-06-19T10:02:07;100516.09;;;29.16;51.83
2178;BME280;1095;50.992;6.798;2023-06-19T10:04:42;100514.56;;;29.33;51.82
2178;BME280;1095;50.992;6.798;2023-06-19T10:07:22;100514.88;;;28.98;51.83
2178;BME280;1095;50.992;6.798;2023-06-19T10:09:59;100517.28;;;28.99;52.34
2178;BME280;1095;50.992;6.798;2023-06-19T10:12:40;100512.41;;;29.35;52.27
2178;BME280;1095;50.992;6.798;2023-06-19T10:15:12;100519.69;;;29.35;51.46
2178;BME280;1095;50.992;6.798;2023-06-19T10:17:44;100511.34;;;29.02;50.91
2178;BME280;1095;50.992;6.798;2023-06-19T10:20:28;100504.69;;;28.40;52.98
2178;BME280;1095;50.992;6.798;2023-06-19T10:23:02;100508.81;;;28.28;52.93
2178;BME280;1095;50.992;6.798;2023-06-19T10:25:30;100507.75;;;28.24;53.53
2178;BME280;1095;50.992;6.798;2023-06-19T10:28:01;100494.56;;;28.17;52.89
2178;BME280;1095;50.992;6.798;2023-06-19T10:30:31;100505.69;;;28.60;52.79
2178;BME280;1095;50.992;6.798;2023-06-19T10:32:59;100506.72;;;28.69;53.64
2178;BME280;1095;50.992;6.798;2023-06-19T10:35:28;100500.09;;;28.46;53.66
2178;BME280;1095;50.992;6.798;2023-06-19T10:37:54;100487.09;;;28.04;53.23
2178;BME280;1095;50.992;6.798;2023-06-19T10:40:22;100495.06;;;27.34;55.05
2178;BME280;1095;50.992;6.798;2023-06-19T10:42:49;100504.66;;;27.81;53.58
2178;BME280;1095;50.992;6.798;2023-06-19T10:45:16;100487.03;;;28.24;53.36
2178;BME280;1095;50.992;6.798;2023-06-19T10:47:43;100498.78;;;28.88;51.99
2178;BME280;1095;50.992;6.798;2023-06-19T10:50:11;100503.47;;;29.11;51.29
2178;BME280;1095;50.992;6.798;2023-06-19T10:52:41;100501.97;;;28.95;52.01
2178;BME280;1095;50.992;6.798;2023-06-19T10:55:09;100491.69;;;29.02;52.77
2178;BME280;1095;50.992;6.798;2023-06-19T10:57:40;100492.19;;;28.65;53.05
2178;BME280;1095;50.992;6.798;2023-06-19T11:00:08;100481.38;;;28.26;53.33
2178;BME280;1095;50.992;6.798;2023-06-19T11:02:39;100487.00;;;28.79;52.82
2178;BME280;1095;50.992;6.798;2023-06-19T11:05:08;100487.59;;;28.70;52.73
2178;BME280;1095;50.992;6.798;2023-06-19T11:07:35;100482.13;;;28.36;52.50
2178;BME280;1095;50.992;6.798;2023-06-19T11:10:02;100484.59;;;28.33;52.27
2178;BME280;1095;50.992;6.798;2023-06-19T11:12:28;100473.03;;;28.32;51.37
2178;BME280;1095;50.992;6.798;2023-06-19T11:14:56;100473.88;;;28.23;52.49
2178;BME280;1095;50.992;6.798;2023-06-19T11:17:23;100469.00;;;28.25;51.39
2178;BME280;1095;50.992;6.798;2023-06-19T11:22:35;100455.34;;;28.99;50.71
2178;BME280;1095;50.992;6.798;2023-06-19T11:25:05;100460.91;;;29.37;50.05
2178;BME280;1095;50.992;6.798;2023-06-19T11:30:30;100469.72;;;29.48;49.77
2178;BME280;1095;50.992;6.798;2023-06-19T11:33:21;100469.78;;;29.43;50.88
2178;BME280;1095;50.992;6.798;2023-06-19T11:35:49;100439.97;;;29.58;50.36
2178;BME280;1095;50.992;6.798;2023-06-19T11:38:23;100448.91;;;29.53;50.32
2178;BME280;1095;50.992;6.798;2023-06-19T11:40:56;100453.47;;;28.95;51.12
2178;BME280;1095;50.992;6.798;2023-06-19T11:43:27;100465.22;;;29.09;50.86
2178;BME280;1095;50.992;6.798;2023-06-19T11:46:01;100447.78;;;28.62;51.46
2178;BME280;1095;50.992;6.798;2023-06-19T11:48:32;100442.69;;;28.61;51.77
2178;BME280;1095;50.992;6.798;2023-06-19T11:51:01;100435.31;;;29.11;50.72
2178;BME280;1095;50.992;6.798;2023-06-19T11:53:35;100470.44;;;29.29;50.88
2178;BME280;1095;50.992;6.798;2023-06-19T11:56:09;100441.53;;;29.06;51.30
2178;BME280;1095;50.992;6.798;2023-06-19T11:58:40;100473.03;;;29.11;51.75
2178;BME280;1095;50.992;6.798;2023-06-19T12:01:12;100468.28;;;28.97;52.00
2178;BME280;1095;50.992;6.798;2023-06-19T12:04:04;100480.41;;;29.29;51.41
2178;BME280;1095;50.992;6.798;2023-06-19T12:06:31;100485.47;;;29.01;51.88
2178;BME280;1095;50.992;6.798;2023-06-19T12:09:05;100456.22;;;29.24;50.55
2178;BME280;1095;50.992;6.798;2023-06-19T12:11:48;100450.81;;;29.24;50.50
2178;BME280;1095;50.992;6.798;2023-06-19T12:14:17;100441.66;;;28.91;50.57
2178;BME280;1095;50.992;6.798;2023-06-19T12:16:46;100432.09;;;29.09;50.02
2178;BME280;1095;50.992;6.798;2023-06-19T12:19:14;100428.47;;;29.23;50.25
2178;BME280;1095;50.992;6.798;2023-06-19T12:21:41;100457.97;;;29.33;49.36
2178;BME280;1095;50.992;6.798;2023-06-19T12:24:09;100447.88;;;29.49;50.67
2178;BME280;1095;50.992;6.798;2023-06-19T12:26:38;100454.47;;;29.33;49.40
2178;BME280;1095;50.992;6.798;2023-06-19T12:29:06;100453.97;;;29.31;49.46
2178;BME280;1095;50.992;6.798;2023-06-19T12:31:35;100455.81;;;29.06;49.84
2178;BME280;1095;50.992;6.798;2023-06-19T12:34:04;100465.34;;;28.94;50.27
2178;BME280;1095;50.992;6.798;2023-06-19T12:36:31;100454.88;;;28.48;50.82
2178;BME280;1095;50.992;6.798;2023-06-19T12:38:59;100452.56;;;28.31;51.50
2178;BME280;1095;50.992;6.798;2023-06-19T12:41:26;100461.19;;;29.06;51.14
2178;BME280;1095;50.992;6.798;2023-06-19T12:43:52;100454.06;;;29.50;49.65
2178;BME280;1095;50.992;6.798;2023-06-19T12:46:21;100448.63;;;29.55;49.26
2178;BME280;1095;50.992;6.798;2023-06-19T12:51:33;100443.38;;;29.87;48.85
2178;BME280;1095;50.992;6.798;2023-06-19T12:57:43;100428.00;;;29.88;48.36
2178;BME280;1095;50.992;6.798;2023-06-19T13:03:42;100444.25;;;30.07;49.38
2178;BME280;1095;50.992;6.798;2023-06-19T13:06:09;100442.06;;;30.46;47.85
2178;BME280;1095;50.992;6.798;2023-06-19T13:08:37;100439.19;;;30.24;48.10
2178;BME280;1095;50.992;6.798;2023-06-19T13:11:03;100436.97;;;29.83;49.00
2178;BME280;1095;50.992;6.798;2023-06-19T13:13:30;100442.16;;;29.98;49.72
2178;BME280;1095;50.992;6.798;2023-06-19T13:15:57;100432.75;;;30.20;48.34
2178;BME280;1095;50.992;6.798;2023-06-19T13:18:23;100432.59;;;29.87;48.75
2178;BME280;1095;50.992;6.798;2023-06-19T13:20:50;100420.19;;;29.38;49.44
2178;BME280;1095;50.992;6.798;2023-06-19T13:23:16;100425.59;;;29.38;50.16
2178;BME280;1095;50.992;6.798;2023-06-19T13:25:44;100421.13;;;29.29;50.20
2178;BME280;1095;50.992;6.798;2023-06-19T13:28:13;100416.41;;;29.68;49.37
2178;BME280;1095;50.992;6.798;2023-06-19T13:30:39;100419.81;;;29.26;49.72